sensor_id;sensor_type;location;lat;lon;timestamp;P1;durP1;ratioP1;P2;durP2;ratioP2
55710;SDS011;41612;51.994;5.880;2024-03-08T06:22:44;59.17;;;32.03;;
55710;SDS011;41612;51.994;5.880;2024-03-08T06:25:11;60.83;;;32.50;;
55710;SDS011;41612;51.994;5.880;2024-03-08T06:27:45;59.25;;;31.50;;
55710;SDS011;41612;51.994;5.880;2024-03-08T06:30:30;62.10;;;33.20;;
55710;SDS011;41612;51.994;5.880;2024-03-08T06:33:38;59.75;;;32.30;;
55710;SDS011;41612;51.994;5.880;2024-03-08T06:36:25;61.97;;;33.13;;
55710;SDS011;41612;51.994;5.880;2024-03-08T06:38:51;56.38;;;32.75;;
55710;SDS011;41612;51.994;5.880;2024-03-08T06:41:26;56.60;;;33.42;;
55710;SDS011;41612;51.994;5.880;2024-03-08T06:44:23;64.93;;;34.78;;
55710;SDS011;41612;51.994;5.880;2024-03-08T06:51:02;70.20;;;35.58;;
55710;SDS011;41612;51.994;5.880;2024-03-08T06:53:35;63.92;;;34.20;;
55710;SDS011;41612;51.994;5.880;2024-03-08T07:03:33;63.15;;;33.85;;
55710;SDS011;41612;51.994;5.880;2024-03-08T07:07:05;64.35;;;36.42;;
55710;SDS011;41612;51.994;5.880;2024-03-08T07:09:56;63.13;;;36.22;;
55710;SDS011;41612;51.994;5.880;2024-03-08T07:13:15;64.25;;;34.00;;
55710;SDS011;41612;51.994;5.880;2024-03-08T07:15:57;62.63;;;34.05;;
55710;SDS011;41612;51.994;5.880;2024-03-08T07:21:04;67.15;;;37.05;;
55710;SDS011;41612;51.994;5.880;2024-03-08T07:23:35;56.00;;;35.55;;
55710;SDS011;41612;51.994;5.880;2024-03-08T07:26:38;70.15;;;37.90;;
55710;SDS011;41612;51.994;5.880;2024-03-08T07:29:16;61.53;;;34.65;;
55710;SDS011;41612;51.994;5.880;2024-03-08T07:31:49;61.88;;;34.78;;
55710;SDS011;41612;51.994;5.880;2024-03-08T07:34:34;66.90;;;37.80;;
55710;SDS011;41612;51.994;5.880;2024-03-08T07:37:17;59.92;;;34.88;;
55710;SDS011;41612;51.994;5.880;2024-03-08T07:39:56;72.78;;;38.83;;
55710;SDS011;41612;51.994;5.880;2024-03-08T07:43:18;60.95;;;35.08;;
55710;SDS011;41612;51.994;5.880;2024-03-08T07:45:52;77.88;;;41.63;;
55710;SDS011;41612;51.994;5.880;2024-03-08T07:48:22;61.33;;;35.13;;
55710;SDS011;41612;51.994;5.880;2024-03-08T07:50:53;62.70;;;37.10;;
55710;SDS011;41612;51.994;5.880;2024-03-08T07:54:15;65.90;;;37.53;;
55710;SDS011;41612;51.994;5.880;2024-03-08T08:24:44;64.55;;;36.60;;
55710;SDS011;41612;51.994;5.880;2024-03-08T08:27:30;63.60;;;36.88;;
55710;SDS011;41612;51.994;5.880;2024-03-08T08:30:09;64.20;;;36.65;;
55710;SDS011;41612;51.994;5.880;2024-03-08T08:32:36;62.20;;;36.10;;
55710;SDS011;41612;51.994;5.880;2024-03-08T08:35:05;60.42;;;36.22;;
55710;SDS011;41612;51.994;5.880;2024-03-08T08:37:38;58.10;;;34.05;;
55710;SDS011;41612;51.994;5.880;2024-03-08T08:40:04;59.90;;;35.17;;
55710;SDS011;41612;51.994;5.880;2024-03-08T08:42:37;58.92;;;37.15;;
55710;SDS011;41612;51.994;5.880;2024-03-08T08:45:04;67.00;;;38.45;;
55710;SDS011;41612;51.994;5.880;2024-03-08T08:47:38;62.88;;;36.40;;
55710;SDS011;41612;51.994;5.880;2024-03-08T08:50:07;56.80;;;35.22;;
55710;SDS011;41612;51.994;5.880;2024-03-08T08:52:37;56.13;;;35.28;;
55710;SDS011;41612;51.994;5.880;2024-03-08T08:55:04;61.03;;;36.00;;
55710;SDS011;41612;51.994;5.880;2024-03-08T09:01:04;63.70;;;37.22;;
55710;SDS011;41612;51.994;5.880;2024-03-08T09:03:30;52.40;;;33.00;;
55710;SDS011;41612;51.994;5.880;2024-03-08T09:05:56;53.88;;;33.08;;
55710;SDS011;41612;51.994;5.880;2024-03-08T09:08:22;58.30;;;36.97;;
55710;SDS011;41612;51.994;5.880;2024-03-08T09:10:58;60.13;;;32.97;;
55710;SDS011;41612;51.994;5.880;2024-03-08T09:16:51;51.45;;;31.20;;
55710;SDS011;41612;51.994;5.880;2024-03-08T09:19:32;46.85;;;31.13;;
55710;SDS011;41612;51.994;5.880;2024-03-08T09:22:04;48.53;;;30.60;;
55710;SDS011;41612;51.994;5.880;2024-03-08T09:24:30;47.60;;;27.88;;
55710;SDS011;41612;51.994;5.880;2024-03-08T09:27:12;40.47;;;27.52;;
55710;SDS011;41612;51.994;5.880;2024-03-08T09:29:46;44.25;;;27.98;;
55710;SDS011;41612;51.994;5.880;2024-03-08T09:32:16;48.35;;;29.13;;
55710;SDS011;41612;51.994;5.880;2024-03-08T09:34:46;46.50;;;29.05;;
55710;SDS011;41612;51.994;5.880;2024-03-08T09:40:08;38.53;;;25.95;;
55710;SDS011;41612;51.994;5.880;2024-03-08T09:42:54;43.47;;;29.63;;
55710;SDS011;41612;51.994;5.880;2024-03-08T09:45:32;44.72;;;29.67;;
55710;SDS011;41612;51.994;5.880;2024-03-08T09:48:11;43.97;;;27.80;;
55710;SDS011;41612;51.994;5.880;2024-03-08T09:50:49;41.17;;;27.35;;
55710;SDS011;41612;51.994;5.880;2024-03-08T09:53:42;42.00;;;27.05;;
55710;SDS011;41612;51.994;5.880;2024-03-08T09:56:16;36.53;;;24.75;;
55710;SDS011;41612;51.994;5.880;2024-03-08T09:58:58;36.05;;;25.75;;
55710;SDS011;41612;51.994;5.880;2024-03-08T10:01:42;35.17;;;22.95;;
55710;SDS011;41612;51.994;5.880;2024-03-08T10:04:17;35.88;;;25.38;;
55710;SDS011;41612;51.994;5.880;2024-03-08T10:06:45;34.20;;;24.55;;
55710;SDS011;41612;51.994;5.880;2024-03-08T10:09:12;39.13;;;26.63;;
55710;SDS011;41612;51.994;5.880;2024-03-08T10:11:39;38.75;;;28.00;;
55710;SDS011;41612;51.994;5.880;2024-03-08T10:14:05;34.17;;;23.35;;
55710;SDS011;41612;51.994;5.880;2024-03-08T10:16:37;35.72;;;23.63;;
55710;SDS011;41612;51.994;5.880;2024-03-08T10:19:09;35.63;;;24.25;;
55710;SDS011;41612;51.994;5.880;2024-03-08T10:21:49;34.63;;;22.88;;
55710;SDS011;41612;51.994;5.880;2024-03-08T10:24:23;33.70;;;22.25;;
55710;SDS011;41612;51.994;5.880;2024-03-08T10:26:53;33.88;;;22.20;;
55710;SDS011;41612;51.994;5.880;2024-03-08T10:29:23;31.80;;;23.30;;
55710;SDS011;41612;51.994;5.880;2024-03-08T10:31:49;30.17;;;21.90;;
55710;SDS011;41612;51.994;5.880;2024-03-08T10:34:15;31.85;;;23.10;;
55710;SDS011;41612;51.994;5.880;2024-03-08T10:36:43;29.80;;;21.67;;
55710;SDS011;41612;51.994;5.880;2024-03-08T10:39:21;28.77;;;21.13;;
55710;SDS011;41612;51.994;5.880;2024-03-08T10:41:58;25.30;;;18.83;;
55710;SDS011;41612;51.994;5.880;2024-03-08T10:44:55;28.95;;;20.02;;
55710;SDS011;41612;51.994;5.880;2024-03-08T10:48:28;27.83;;;18.95;;
55710;SDS011;41612;51.994;5.880;2024-03-08T10:51:17;27.15;;;19.77;;
55710;SDS011;41612;51.994;5.880;2024-03-08T10:54:30;30.80;;;20.38;;
55710;SDS011;41612;51.994;5.880;2024-03-08T10:57:30;26.17;;;18.27;;
55710;SDS011;41612;51.994;5.880;2024-03-08T11:00:38;23.55;;;18.27;;
55710;SDS011;41612;51.994;5.880;2024-03-08T11:07:01;28.92;;;20.65;;
55710;SDS011;41612;51.994;5.880;2024-03-08T11:09:39;28.33;;;18.88;;
55710;SDS011;41612;51.994;5.880;2024-03-08T11:14:55;36.30;;;20.85;;
55710;SDS011;41612;51.994;5.880;2024-03-08T11:20:11;20.60;;;16.30;;
55710;SDS011;41612;51.994;5.880;2024-03-08T11:22:42;22.85;;;16.60;;
55710;SDS011;41612;51.994;5.880;2024-03-08T11:32:45;20.23;;;16.23;;
55710;SDS011;41612;51.994;5.880;2024-03-08T11:35:22;22.48;;;16.85;;
55710;SDS011;41612;51.994;5.880;2024-03-08T11:41:20;19.63;;;15.70;;
55710;SDS011;41612;51.994;5.880;2024-03-08T11:43:52;23.00;;;17.70;;
55710;SDS011;41612;51.994;5.880;2024-03-08T11:46:36;22.92;;;16.85;;
55710;SDS011;41612;51.994;5.880;2024-03-08T11:49:26;19.27;;;14.95;;
55710;SDS011;41612;51.994;5.880;2024-03-08T12:35:22;18.85;;;13.60;;
55710;SDS011;41612;51.994;5.880;2024-03-08T12:38:22;20.50;;;15.70;;
55710;SDS011;41612;51.994;5.880;2024-03-08T12:41:24;20.08;;;15.65;;
55710;SDS011;41612;51.994;5.880;2024-03-08T12:43:52;20.83;;;13.77;;
55710;SDS011;41612;51.994;5.880;2024-03-08T12:46:20;21.35;;;15.95;;
55710;SDS011;41612;51.994;5.880;2024-03-08T13:05:56;20.40;;;16.07;;
55710;SDS011;41612;51.994;5.880;2024-03-08T13:08:22;17.65;;;15.10;;
55710;SDS011;41612;51.994;5.880;2024-03-08T13:10:50;16.88;;;13.95;;
55710;SDS011;41612;51.994;5.880;2024-03-08T13:13:21;19.75;;;15.20;;
55710;SDS011;41612;51.994;5.880;2024-03-08T13:15:49;19.13;;;15.60;;
55710;SDS011;41612;51.994;5.880;2024-03-08T13:18:15;18.08;;;14.88;;
55710;SDS011;41612;51.994;5.880;2024-03-08T13:20:46;14.02;;;11.60;;
55710;SDS011;41612;51.994;5.880;2024-03-08T13:23:14;13.73;;;12.27;;
55710;SDS011;41612;51.994;5.880;2024-03-08T13:25:40;21.42;;;15.90;;
55710;SDS011;41612;51.994;5.880;2024-03-08T13:28:13;22.92;;;16.65;;
55710;SDS011;41612;51.994;5.880;2024-03-08T13:31:23;18.10;;;14.63;;
55710;SDS011;41612;51.994;5.880;2024-03-08T13:33:49;14.55;;;11.85;;
55710;SDS011;41612;51.994;5.880;2024-03-08T13:36:16;15.38;;;13.32;;
55710;SDS011;41612;51.994;5.880;2024-03-08T13:38:49;17.98;;;14.02;;
55710;SDS011;41612;51.994;5.880;2024-03-08T13:41:17;21.48;;;15.05;;
55710;SDS011;41612;51.994;5.880;2024-03-08T13:47:18;16.23;;;14.05;;
55710;SDS011;41612;51.994;5.880;2024-03-08T13:50:08;19.38;;;15.50;;
55710;SDS011;41612;51.994;5.880;2024-03-08T13:52:38;15.23;;;12.52;;
55710;SDS011;41612;51.994;5.880;2024-03-08T13:55:07;18.83;;;15.55;;
55710;SDS011;41612;51.994;5.880;2024-03-08T13:57:36;19.63;;;15.88;;
55710;SDS011;41612;51.994;5.880;2024-03-08T14:00:04;17.83;;;15.23;;
55710;SDS011;41612;51.994;5.880;2024-03-08T14:02:38;13.60;;;11.20;;
55710;SDS011;41612;51.994;5.880;2024-03-08T14:05:09;21.42;;;15.95;;
55710;SDS011;41612;51.994;5.880;2024-03-08T14:07:39;17.63;;;13.32;;
55710;SDS011;41612;51.994;5.880;2024-03-08T14:10:11;18.83;;;15.00;;
55710;SDS011;41612;51.994;5.880;2024-03-08T14:12:37;15.32;;;13.52;;
55710;SDS011;41612;51.994;5.880;2024-03-08T14:15:05;17.80;;;14.68;;
55710;SDS011;41612;51.994;5.880;2024-03-08T14:17:32;19.15;;;15.10;;
55710;SDS011;41612;51.994;5.880;2024-03-08T14:20:08;17.13;;;14.10;;
55710;SDS011;41612;51.994;5.880;2024-03-08T14:22:42;14.07;;;11.67;;
55710;SDS011;41612;51.994;5.880;2024-03-08T14:25:19;11.55;;;10.35;;
55710;SDS011;41612;51.994;5.880;2024-03-08T14:27:52;14.02;;;11.90;;
55710;SDS011;41612;51.994;5.880;2024-03-08T14:30:34;17.98;;;15.00;;
55710;SDS011;41612;51.994;5.880;2024-03-08T14:33:13;19.92;;;15.30;;
55710;SDS011;41612;51.994;5.880;2024-03-08T14:35:44;10.68;;;9.45;;
55710;SDS011;41612;51.994;5.880;2024-03-08T14:38:25;10.63;;;9.15;;
55710;SDS011;41612;51.994;5.880;2024-03-08T14:40:53;12.55;;;10.60;;
55710;SDS011;41612;51.994;5.880;2024-03-08T14:43:22;12.93;;;11.63;;
55710;SDS011;41612;51.994;5.880;2024-03-08T14:46:06;14.98;;;12.90;;
55710;SDS011;41612;51.994;5.880;2024-03-08T14:48:35;17.48;;;13.43;;
55710;SDS011;41612;51.994;5.880;2024-03-08T14:51:12;18.73;;;15.18;;
55710;SDS011;41612;51.994;5.880;2024-03-08T14:53:42;11.82;;;10.50;;
55710;SDS011;41612;51.994;5.880;2024-03-08T14:56:12;14.93;;;12.88;;
55710;SDS011;41612;51.994;5.880;2024-03-08T14:58:45;14.40;;;11.00;;
55710;SDS011;41612;51.994;5.880;2024-03-08T15:01:17;12.67;;;11.37;;
55710;SDS011;41612;51.994;5.880;2024-03-08T15:03:49;13.73;;;12.00;;
55710;SDS011;41612;51.994;5.880;2024-03-08T15:06:15;11.77;;;10.25;;
55710;SDS011;41612;51.994;5.880;2024-03-08T15:08:45;20.63;;;14.13;;
55710;SDS011;41612;51.994;5.880;2024-03-08T15:11:12;15.68;;;13.65;;
55710;SDS011;41612;51.994;5.880;2024-03-08T15:13:38;13.18;;;10.85;;
55710;SDS011;41612;51.994;5.880;2024-03-08T15:16:10;12.20;;;10.77;;
55710;SDS011;41612;51.994;5.880;2024-03-08T15:18:43;14.90;;;12.18;;
55710;SDS011;41612;51.994;5.880;2024-03-08T15:21:20;16.13;;;14.43;;
55710;SDS011;41612;51.994;5.880;2024-03-08T15:24:03;16.48;;;13.10;;
55710;SDS011;41612;51.994;5.880;2024-03-08T15:26:44;18.83;;;14.82;;
55710;SDS011;41612;51.994;5.880;2024-03-08T15:29:13;12.70;;;11.00;;
55710;SDS011;41612;51.994;5.880;2024-03-08T15:31:39;14.05;;;11.38;;
55710;SDS011;41612;51.994;5.880;2024-03-08T15:34:11;12.73;;;10.93;;
55710;SDS011;41612;51.994;5.880;2024-03-08T15:36:46;15.15;;;12.65;;
55710;SDS011;41612;51.994;5.880;2024-03-08T15:39:17;12.93;;;11.20;;
55710;SDS011;41612;51.994;5.880;2024-03-08T15:41:54;18.38;;;13.55;;
55710;SDS011;41612;51.994;5.880;2024-03-08T15:44:25;16.88;;;14.57;;
55710;SDS011;41612;51.994;5.880;2024-03-08T15:49:45;13.40;;;11.70;;
55710;SDS011;41612;51.994;5.880;2024-03-08T15:52:10;17.58;;;13.93;;
55710;SDS011;41612;51.994;5.880;2024-03-08T15:54:39;12.50;;;10.93;;
55710;SDS011;41612;51.994;5.880;2024-03-08T15:57:10;13.02;;;11.38;;
55710;SDS011;41612;51.994;5.880;2024-03-08T15:59:40;16.95;;;13.00;;
55710;SDS011;41612;51.994;5.880;2024-03-08T16:02:06;17.75;;;15.40;;
55710;SDS011;41612;51.994;5.880;2024-03-08T16:04:34;16.30;;;13.15;;
55710;SDS011;41612;51.994;5.880;2024-03-08T16:07:00;18.00;;;13.30;;
55710;SDS011;41612;51.994;5.880;2024-03-08T16:09:26;14.32;;;11.77;;
55710;SDS011;41612;51.994;5.880;2024-03-08T16:11:56;18.60;;;14.25;;
55710;SDS011;41612;51.994;5.880;2024-03-08T16:14:26;15.27;;;11.68;;
55710;SDS011;41612;51.994;5.880;2024-03-08T16:16:55;17.15;;;13.05;;
55710;SDS011;41612;51.994;5.880;2024-03-08T16:19:22;14.77;;;12.40;;
55710;SDS011;41612;51.994;5.880;2024-03-08T16:21:48;15.50;;;13.27;;
55710;SDS011;41612;51.994;5.880;2024-03-08T16:24:13;14.55;;;11.15;;
55710;SDS011;41612;51.994;5.880;2024-03-08T16:26:39;16.48;;;13.38;;
55710;SDS011;41612;51.994;5.880;2024-03-08T16:29:06;18.13;;;14.23;;
55710;SDS011;41612;51.994;5.880;2024-03-08T16:31:32;13.65;;;12.25;;
55710;SDS011;41612;51.994;5.880;2024-03-08T16:34:00;18.35;;;14.70;;
55710;SDS011;41612;51.994;5.880;2024-03-08T16:36:26;19.98;;;16.15;;
55710;SDS011;41612;51.994;5.880;2024-03-08T16:38:58;16.23;;;13.30;;
55710;SDS011;41612;51.994;5.880;2024-03-08T16:41:24;21.33;;;17.05;;
55710;SDS011;41612;51.994;5.880;2024-03-08T16:43:53;20.83;;;15.18;;
55710;SDS011;41612;51.994;5.880;2024-03-08T16:46:22;25.40;;;19.65;;
55710;SDS011;41612;51.994;5.880;2024-03-08T16:48:56;24.08;;;17.92;;
55710;SDS011;41612;51.994;5.880;2024-03-08T16:51:24;26.23;;;18.63;;
55710;SDS011;41612;51.994;5.880;2024-03-08T16:54:09;23.23;;;16.98;;
55710;SDS011;41612;51.994;5.880;2024-03-08T16:56:35;22.75;;;17.35;;
55710;SDS011;41612;51.994;5.880;2024-03-08T16:59:03;21.38;;;16.05;;
55710;SDS011;41612;51.994;5.880;2024-03-08T17:04:15;24.38;;;15.77;;
55710;SDS011;41612;51.994;5.880;2024-03-08T17:07:00;23.30;;;17.00;;
55710;SDS011;41612;51.994;5.880;2024-03-08T17:09:59;24.67;;;16.83;;
55710;SDS011;41612;51.994;5.880;2024-03-08T17:12:26;23.35;;;18.13;;
55710;SDS011;41612;51.994;5.880;2024-03-08T17:15:00;22.35;;;16.10;;
55710;SDS011;41612;51.994;5.880;2024-03-08T17:20:33;26.42;;;18.90;;
55710;SDS011;41612;51.994;5.880;2024-03-08T17:23:49;23.10;;;17.15;;
55710;SDS011;41612;51.994;5.880;2024-03-08T17:26:20;24.17;;;17.45;;
55710;SDS011;41612;51.994;5.880;2024-03-08T17:28:55;31.63;;;22.25;;
55710;SDS011;41612;51.994;5.880;2024-03-08T17:31:26;25.90;;;17.50;;
55710;SDS011;41612;51.994;5.880;2024-03-08T17:33:55;29.23;;;20.65;;
55710;SDS011;41612;51.994;5.880;2024-03-08T17:36:30;30.48;;;19.73;;
55710;SDS011;41612;51.994;5.880;2024-03-08T17:39:01;34.45;;;22.80;;
55710;SDS011;41612;51.994;5.880;2024-03-08T17:41:27;25.33;;;18.42;;
55710;SDS011;41612;51.994;5.880;2024-03-08T17:43:57;30.20;;;20.60;;
55710;SDS011;41612;51.994;5.880;2024-03-08T17:46:25;27.52;;;19.65;;
55710;SDS011;41612;51.994;5.880;2024-03-08T17:49:01;23.85;;;18.08;;
55710;SDS011;41612;51.994;5.880;2024-03-08T17:51:37;26.70;;;19.60;;
55710;SDS011;41612;51.994;5.880;2024-03-08T17:54:08;33.55;;;21.58;;
55710;SDS011;41612;51.994;5.880;2024-03-08T17:56:43;36.08;;;21.60;;
55710;SDS011;41612;51.994;5.880;2024-03-08T17:59:10;31.50;;;22.02;;
55710;SDS011;41612;51.994;5.880;2024-03-08T18:01:40;33.10;;;23.17;;
55710;SDS011;41612;51.994;5.880;2024-03-08T18:04:08;29.67;;;20.23;;
55710;SDS011;41612;51.994;5.880;2024-03-08T18:06:36;27.20;;;19.75;;
55710;SDS011;41612;51.994;5.880;2024-03-08T18:09:08;27.48;;;20.13;;
55710;SDS011;41612;51.994;5.880;2024-03-08T20:12:48;43.55;;;24.77;;
55710;SDS011;41612;51.994;5.880;2024-03-08T20:15:19;28.48;;;19.23;;
55710;SDS011;41612;51.994;5.880;2024-03-08T21:09:07;32.80;;;20.30;;
55710;SDS011;41612;51.994;5.880;2024-03-08T21:14:21;42.60;;;25.42;;
55710;SDS011;41612;51.994;5.880;2024-03-08T21:16:48;37.55;;;24.92;;
55710;SDS011;41612;51.994;5.880;2024-03-08T21:19:31;36.85;;;22.98;;
55710;SDS011;41612;51.994;5.880;2024-03-08T21:21:58;43.10;;;25.83;;
55710;SDS011;41612;51.994;5.880;2024-03-08T21:24:24;37.03;;;24.50;;
55710;SDS011;41612;51.994;5.880;2024-03-08T21:26:53;35.38;;;23.15;;
55710;SDS011;41612;51.994;5.880;2024-03-08T21:29:20;42.35;;;26.10;;
55710;SDS011;41612;51.994;5.880;2024-03-08T21:31:45;31.50;;;20.85;;
55710;SDS011;41612;51.994;5.880;2024-03-08T21:34:11;31.15;;;20.80;;
55710;SDS011;41612;51.994;5.880;2024-03-08T21:36:39;40.78;;;23.75;;
55710;SDS011;41612;51.994;5.880;2024-03-08T21:39:09;37.72;;;24.20;;
55710;SDS011;41612;51.994;5.880;2024-03-08T21:41:36;41.08;;;24.75;;
55710;SDS011;41612;51.994;5.880;2024-03-08T21:44:03;36.50;;;22.52;;
55710;SDS011;41612;51.994;5.880;2024-03-08T21:46:28;40.22;;;23.83;;
55710;SDS011;41612;51.994;5.880;2024-03-08T21:48:54;45.83;;;25.75;;
55710;SDS011;41612;51.994;5.880;2024-03-08T21:51:22;41.33;;;25.52;;
55710;SDS011;41612;51.994;5.880;2024-03-08T21:53:47;32.45;;;20.80;;
55710;SDS011;41612;51.994;5.880;2024-03-08T21:56:13;40.03;;;24.80;;
55710;SDS011;41612;51.994;5.880;2024-03-08T21:58:42;31.95;;;21.38;;
55710;SDS011;41612;51.994;5.880;2024-03-08T22:01:09;39.42;;;23.92;;
55710;SDS011;41612;51.994;5.880;2024-03-08T22:03:35;39.47;;;23.10;;
55710;SDS011;41612;51.994;5.880;2024-03-08T22:06:02;44.22;;;25.95;;
55710;SDS011;41612;51.994;5.880;2024-03-08T22:08:35;44.92;;;26.60;;
55710;SDS011;41612;51.994;5.880;2024-03-08T22:11:03;38.22;;;23.40;;
55710;SDS011;41612;51.994;5.880;2024-03-08T22:13:29;31.80;;;19.83;;
55710;SDS011;41612;51.994;5.880;2024-03-08T22:15:55;35.63;;;20.67;;
55710;SDS011;41612;51.994;5.880;2024-03-08T22:18:24;38.20;;;23.58;;
55710;SDS011;41612;51.994;5.880;2024-03-08T22:20:55;45.50;;;27.42;;
55710;SDS011;41612;51.994;5.880;2024-03-08T22:23:20;38.05;;;24.45;;
55710;SDS011;41612;51.994;5.880;2024-03-08T22:25:48;40.08;;;26.38;;
55710;SDS011;41612;51.994;5.880;2024-03-08T22:28:16;39.13;;;24.13;;
55710;SDS011;41612;51.994;5.880;2024-03-08T22:30:48;44.47;;;25.25;;
55710;SDS011;41612;51.994;5.880;2024-03-08T22:33:14;42.47;;;24.70;;
55710;SDS011;41612;51.994;5.880;2024-03-08T22:35:40;36.95;;;22.20;;
55710;SDS011;41612;51.994;5.880;2024-03-08T22:38:07;44.40;;;25.67;;
55710;SDS011;41612;51.994;5.880;2024-03-08T22:40:34;39.67;;;24.33;;
55710;SDS011;41612;51.994;5.880;2024-03-08T22:43:00;40.13;;;25.55;;
55710;SDS011;41612;51.994;5.880;2024-03-08T22:45:26;32.83;;;20.85;;
55710;SDS011;41612;51.994;5.880;2024-03-08T22:47:52;49.47;;;28.77;;
55710;SDS011;41612;51.994;5.880;2024-03-08T22:50:19;38.65;;;24.65;;
55710;SDS011;41612;51.994;5.880;2024-03-08T22:52:49;32.42;;;20.50;;
55710;SDS011;41612;51.994;5.880;2024-03-08T22:55:16;39.53;;;22.58;;
55710;SDS011;41612;51.994;5.880;2024-03-08T22:57:45;45.70;;;27.65;;
55710;SDS011;41612;51.994;5.880;2024-03-08T23:00:13;44.40;;;26.77;;
55710;SDS011;41612;51.994;5.880;2024-03-08T23:02:49;39.42;;;23.42;;
55710;SDS011;41612;51.994;5.880;2024-03-08T23:05:18;42.85;;;26.73;;
55710;SDS011;41612;51.994;5.880;2024-03-08T23:07:47;37.58;;;22.58;;
55710;SDS011;41612;51.994;5.880;2024-03-08T23:10:13;45.33;;;24.80;;
55710;SDS011;41612;51.994;5.880;2024-03-08T23:12:40;42.33;;;26.30;;
55710;SDS011;41612;51.994;5.880;2024-03-08T23:15:08;36.63;;;23.70;;
55710;SDS011;41612;51.994;5.880;2024-03-08T23:17:45;45.88;;;27.35;;
55710;SDS011;41612;51.994;5.880;2024-03-08T23:20:15;48.97;;;29.48;;
55710;SDS011;41612;51.994;5.880;2024-03-08T23:22:44;47.83;;;28.08;;
55710;SDS011;41612;51.994;5.880;2024-03-08T23:25:17;58.13;;;32.38;;
55710;SDS011;41612;51.994;5.880;2024-03-08T23:27:49;36.55;;;22.33;;
55710;SDS011;41612;51.994;5.880;2024-03-08T23:30:20;49.58;;;29.00;;
55710;SDS011;41612;51.994;5.880;2024-03-08T23:32:49;52.63;;;29.45;;
55710;SDS011;41612;51.994;5.880;2024-03-08T23:35:16;46.38;;;26.88;;
55710;SDS011;41612;51.994;5.880;2024-03-08T23:37:44;49.20;;;27.52;;
55710;SDS011;41612;51.994;5.880;2024-03-08T23:40:10;45.30;;;26.95;;
55710;SDS011;41612;51.994;5.880;2024-03-08T23:42:40;45.38;;;26.60;;
55710;SDS011;41612;51.994;5.880;2024-03-08T23:45:12;47.67;;;28.13;;
55710;SDS011;41612;51.994;5.880;2024-03-08T23:47:47;51.00;;;27.45;;
55710;SDS011;41612;51.994;5.880;2024-03-08T23:50:15;50.45;;;27.60;;
55710;SDS011;41612;51.994;5.880;2024-03-08T23:52:45;52.83;;;29.52;;
55710;SDS011;41612;51.994;5.880;2024-03-08T23:55:14;49.42;;;28.85;;
55710;SDS011;41612;51.994;5.880;2024-03-08T23:57:58;45.58;;;28.33;;
